หน้าหลัก
METAR-TAF:

METAR-TAF

ท่าอากาศยาน :

Land's End, อังกฤษ

ละติจูด: 50-06-10N, ลองจิจูด: 005-40-14W, ความสูง: 122 ม.

การสังเกตสภาพอากาศปัจจุบัน

รายงานได้ทำขึ้นเมื่อ 8 ชั่วโมงและ 4 นาทีที่แล้ว ณ เวลา 16:20 UTC
ลม 21 นอตจากเหนือ
อุณหภูมิ 15°C
ความชื้น 67%
ความกดอากาศ 1017 hPa
ทัศนวิสัย 10 กม. หรือมากกว่า
มีเมฆน้อยที่ความสูง 2200 ฟุต

METAR: EGHC 181620Z 36021KT 9999 FEW022 15/09 Q1017

เวลา: 01:24 (00:24 UTC)

การพยากรณ์

รายงานได้ทำขึ้นเมื่อ 8 ชั่วโมงและ 46 นาทีที่แล้ว ณ เวลา 15:38 UTC
การพยากรณ์มีผลตั้งแต่วันที่ 18 ณ เวลา 15 UTC จนถึงวันที่ 18 ณ เวลา 21 UTC
ลม 22 นอตจากเหนือ
ทัศนวิสัย 10 กม. หรือมากกว่า
มีเมฆน้อยที่ความสูง 2000 ฟุต

TAF: EGHC 181538Z 1815/1821 01022KT 9999 FEW020

สังเกตการณ์สภาพอากาศและพยากรณ์อากาศของสนามบินมากกว่า 4000 แห่ง (รายงาน METAR และ TAF).

สถานีที่ดูได้จะแสดงไว้ด้วยจุดสีเหลืองและสีแดงบนแผนที่.

เลื่อนเมาส์ไปเหนือจุดเพื่อดูชื่อสถานี.

แล้วคลิกเพื่อดูสังเกตการณ์และการพยากรณ์สภาพอากาศ.

ในการเปลี่ยนแผนที่: คลิกที่ปุ่มสีเขียวที่มีกากบาทสีดำเพื่อซูมเข้า; ที่ปุ่มสีเขียวที่มีขีดเพื่อซูมออก; หรือที่ลูกศรสีเขียวเพื่อไปยังแผนที่ที่อยู่ติดกัน.


METAR-TAF: